createdAt,value
2023-01-13T00:00:16.701Z,101018.38
2023-01-13T00:02:43.666Z,101013.97
2023-01-13T00:05:10.946Z,101019.28
2023-01-13T00:07:40.171Z,101015.06
2023-01-13T00:10:10.209Z,101024.78
2023-01-13T00:12:42.325Z,101025.75
2023-01-13T00:15:10.821Z,101014.31
2023-01-13T00:17:38.850Z,101009.78
2023-01-13T00:20:07.383Z,101008.03
2023-01-13T00:22:35.741Z,101015.88
2023-01-13T00:25:04.393Z,101009.63
2023-01-13T00:27:31.732Z,101015.06
2023-01-13T00:29:59.975Z,101015.78
2023-01-13T00:32:27.427Z,101019.28
2023-01-13T00:34:54.414Z,100999.97
2023-01-13T00:37:21.740Z,101003.44
2023-01-13T00:39:48.748Z,101013.09
2023-01-13T00:42:34.504Z,101017.53
2023-01-13T00:45:01.412Z,101023.81
2023-01-13T00:47:28.280Z,101012.34
2023-01-13T00:49:55.559Z,101015.94
2023-01-13T00:52:22.460Z,101010.53
2023-01-13T00:54:49.424Z,101021.06
2023-01-13T00:57:16.453Z,101008.78
2023-01-13T00:59:43.820Z,101015.78
2023-01-13T01:02:10.857Z,101012.22
2023-01-13T01:04:37.985Z,101006.09
2023-01-13T01:07:04.958Z,101008.75
2023-01-13T01:09:32.757Z,101002.66
2023-01-13T01:12:00.770Z,101006.25
2023-01-13T01:14:28.024Z,101007.94
2023-01-13T01:16:55.012Z,100992.00
2023-01-13T01:19:21.856Z,100992.84
2023-01-13T01:21:48.701Z,100990.22
2023-01-13T01:24:16.628Z,100984.97
2023-01-13T01:26:43.767Z,100984.94
2023-01-13T01:29:14.561Z,100975.28
2023-01-13T01:31:41.491Z,100979.00
2023-01-13T01:34:08.358Z,100977.53
2023-01-13T01:36:36.559Z,100980.88
2023-01-13T01:39:04.052Z,100975.66
2023-01-13T01:41:33.596Z,100977.31
2023-01-13T01:44:08.514Z,100972.87
2023-01-13T01:46:42.419Z,100965.75
2023-01-13T01:49:12.640Z,100976.97
2023-01-13T01:51:45.746Z,100961.06
2023-01-13T01:54:15.990Z,100970.69
2023-01-13T01:56:43.843Z,100960.06
2023-01-13T01:59:11.539Z,100964.44
2023-01-13T02:01:39.624Z,100966.97
2023-01-13T02:04:15.581Z,100967.75
2023-01-13T02:06:43.557Z,100958.91
2023-01-13T02:09:11.166Z,100960.75
2023-01-13T02:11:56.753Z,100957.38
2023-01-13T02:14:26.337Z,100960.69
2023-01-13T02:17:09.186Z,100957.94
2023-01-13T02:19:38.957Z,100956.97
2023-01-13T02:22:19.656Z,100948.97
2023-01-13T02:24:55.232Z,100951.53
2023-01-13T02:27:40.550Z,100947.91
2023-01-13T02:30:49.154Z,100945.25
2023-01-13T02:33:27.998Z,100939.06
2023-01-13T02:36:08.209Z,100944.28
2023-01-13T02:38:52.491Z,100939.97
2023-01-13T02:41:44.929Z,100940.97
2023-01-13T02:44:12.852Z,100946.19
2023-01-13T02:47:06.536Z,100944.47
2023-01-13T02:49:45.516Z,100936.47
2023-01-13T02:52:25.192Z,100939.91
2023-01-13T02:54:58.056Z,100937.38
2023-01-13T02:57:26.508Z,100932.06
2023-01-13T02:59:55.498Z,100925.91
2023-01-13T03:02:23.500Z,100925.03
2023-01-13T03:04:52.383Z,100929.44
2023-01-13T03:07:34.050Z,100911.87
2023-01-13T03:10:22.933Z,100923.22
2023-01-13T03:12:52.654Z,100924.13
2023-01-13T03:15:37.051Z,100918.87
2023-01-13T03:18:12.654Z,100917.09
2023-01-13T03:20:44.980Z,100911.75
2023-01-13T03:23:24.893Z,100913.59
2023-01-13T03:26:04.245Z,100915.31
2023-01-13T03:28:46.471Z,100920.59
2023-01-13T03:31:17.823Z,100915.47
2023-01-13T03:33:52.864Z,100911.81
2023-01-13T03:36:23.125Z,100908.31
2023-01-13T03:38:54.457Z,100905.66
2023-01-13T03:41:37.919Z,100910.03
2023-01-13T03:44:22.159Z,100909.44
2023-01-13T03:47:07.386Z,100911.94
2023-01-13T03:49:49.009Z,100904.06
2023-01-13T03:52:21.246Z,100903.12
2023-01-13T03:54:58.143Z,100902.28
2023-01-13T03:57:28.423Z,100903.28
2023-01-13T03:59:59.124Z,100905.97
2023-01-13T04:02:36.522Z,100907.56
2023-01-13T04:05:08.768Z,100906.66
2023-01-13T04:07:44.599Z,100905.97
2023-01-13T04:10:12.677Z,100906.94
2023-01-13T04:13:02.654Z,100909.47
2023-01-13T04:15:41.370Z,100909.47
2023-01-13T04:18:11.693Z,100906.84
2023-01-13T04:20:40.052Z,100907.59
2023-01-13T04:23:07.032Z,100903.16
2023-01-13T04:25:34.203Z,100898.06
2023-01-13T04:28:01.242Z,100912.00
2023-01-13T04:30:28.144Z,100906.66
2023-01-13T04:32:55.091Z,100911.09
2023-01-13T04:35:21.915Z,100912.91
2023-01-13T04:37:48.878Z,100906.12
2023-01-13T04:40:15.991Z,100911.63
2023-01-13T04:42:44.636Z,100913.34
2023-01-13T04:45:12.181Z,100921.34
2023-01-13T04:47:39.125Z,100919.59
2023-01-13T04:50:06.240Z,100916.25
2023-01-13T04:52:33.254Z,100915.16
2023-01-13T04:55:00.178Z,100915.37
2023-01-13T04:57:27.045Z,100916.34
2023-01-13T04:59:54.886Z,100916.25
2023-01-13T05:02:21.853Z,100918.19
2023-01-13T05:04:49.020Z,100906.72
2023-01-13T05:07:16.827Z,100920.94
2023-01-13T05:09:43.769Z,100927.12
2023-01-13T05:12:29.659Z,100911.22
2023-01-13T05:15:15.188Z,100924.50
2023-01-13T05:17:42.541Z,100922.03
2023-01-13T05:20:10.466Z,100915.88
2023-01-13T05:22:56.232Z,100922.03
2023-01-13T05:25:24.584Z,100929.03
2023-01-13T05:27:56.602Z,100933.41
2023-01-13T05:30:26.742Z,100923.91
2023-01-13T05:32:54.149Z,100927.31
2023-01-13T05:35:21.139Z,100929.06
2023-01-13T05:37:48.103Z,100917.81
2023-01-13T05:40:36.372Z,100923.16
2023-01-13T05:43:19.845Z,100925.84
2023-01-13T05:45:46.790Z,100919.50
2023-01-13T05:48:14.424Z,100932.75
2023-01-13T05:50:41.393Z,100930.00
2023-01-13T05:53:08.406Z,100921.44
2023-01-13T05:55:35.369Z,100927.50
2023-01-13T05:58:02.186Z,100932.75
2023-01-13T06:00:29.800Z,100931.06
2023-01-13T06:02:56.674Z,100922.34
2023-01-13T06:05:23.453Z,100925.94
2023-01-13T06:07:50.887Z,100931.97
2023-01-13T06:10:18.477Z,100924.16
2023-01-13T06:12:45.421Z,100939.91
2023-01-13T06:15:12.309Z,100924.75
2023-01-13T06:17:39.168Z,100923.81
2023-01-13T06:20:09.179Z,100930.84
2023-01-13T06:22:39.884Z,100929.13
2023-01-13T06:25:45.741Z,100927.47
2023-01-13T06:28:13.301Z,100931.97
2023-01-13T06:30:45.048Z,100940.75
2023-01-13T06:33:15.734Z,100924.06
2023-01-13T06:35:45.889Z,100944.31
2023-01-13T06:38:15.456Z,100940.81
2023-01-13T06:40:42.717Z,100946.19
2023-01-13T06:43:16.705Z,100948.84
2023-01-13T06:45:49.717Z,100959.44
2023-01-13T06:48:17.688Z,100961.19
2023-01-13T06:50:44.838Z,100961.22
2023-01-13T06:53:12.275Z,100952.34
2023-01-13T06:55:39.151Z,100952.28
2023-01-13T06:58:06.095Z,100955.69
2023-01-13T07:00:35.656Z,100960.31
2023-01-13T07:03:11.220Z,100966.47
2023-01-13T07:05:38.583Z,100958.38
2023-01-13T07:08:05.576Z,100949.69
2023-01-13T07:10:32.903Z,100958.38
2023-01-13T07:13:22.316Z,100960.13
2023-01-13T07:16:03.530Z,100963.75
2023-01-13T07:18:32.076Z,100962.75
2023-01-13T07:21:01.527Z,100964.53
2023-01-13T07:23:29.592Z,100963.66
2023-01-13T07:25:57.445Z,100953.81
2023-01-13T07:28:25.076Z,100958.25
2023-01-13T07:30:52.222Z,100953.88
2023-01-13T07:33:19.336Z,100962.63
2023-01-13T07:35:47.034Z,100959.00
2023-01-13T07:38:14.957Z,100961.78
2023-01-13T07:40:42.020Z,100953.66
2023-01-13T07:43:30.796Z,100952.81
2023-01-13T07:46:03.134Z,100954.41
2023-01-13T07:48:34.659Z,100955.28
2023-01-13T07:51:11.654Z,100959.44
2023-01-13T07:53:38.928Z,100962.03
2023-01-13T07:56:07.110Z,100962.72
2023-01-13T07:58:35.220Z,100951.22
2023-01-13T08:01:10.636Z,100964.31
2023-01-13T08:03:38.679Z,100964.38
2023-01-13T08:06:06.677Z,100971.31
2023-01-13T08:08:33.706Z,100974.03
2023-01-13T08:11:01.415Z,100978.56
2023-01-13T08:13:28.201Z,100981.16
2023-01-13T08:16:01.015Z,100988.16
2023-01-13T08:18:27.911Z,100982.13
2023-01-13T08:20:55.156Z,100989.09
2023-01-13T08:23:22.888Z,100993.41
2023-01-13T08:25:50.324Z,100988.22
2023-01-13T08:28:17.806Z,100980.44
2023-01-13T08:30:45.288Z,100983.84
2023-01-13T08:33:12.963Z,100992.06
2023-01-13T08:35:40.729Z,101001.66
2023-01-13T08:38:08.985Z,101005.25
2023-01-13T08:40:36.283Z,100999.13
2023-01-13T08:43:03.525Z,101009.41
2023-01-13T08:45:30.380Z,101010.97
2023-01-13T08:47:57.465Z,101003.97
2023-01-13T08:50:24.628Z,101018.12
2023-01-13T08:52:51.476Z,101018.00
2023-01-13T08:55:18.410Z,101018.94
2023-01-13T08:57:45.459Z,101017.88
2023-01-13T09:00:13.928Z,101007.25
2023-01-13T09:02:42.035Z,101007.13
2023-01-13T09:05:10.423Z,101000.28
2023-01-13T09:07:38.498Z,100995.00
2023-01-13T09:10:07.521Z,100989.66
2023-01-13T09:12:52.802Z,100984.38
2023-01-13T09:15:19.815Z,100984.47
2023-01-13T09:17:47.910Z,100975.53
2023-01-13T09:20:15.136Z,100980.63
2023-01-13T09:22:42.232Z,100986.72
2023-01-13T09:25:09.910Z,100986.53
2023-01-13T09:27:36.681Z,100991.50
2023-01-13T09:30:04.395Z,100990.53
2023-01-13T09:32:31.279Z,100993.94
2023-01-13T09:35:00.894Z,100974.56
2023-01-13T09:37:34.295Z,100991.31
2023-01-13T09:40:02.463Z,100982.44
2023-01-13T09:43:11.588Z,100986.63
2023-01-13T09:45:51.793Z,100983.91
2023-01-13T09:48:27.734Z,100989.03
2023-01-13T09:51:00.246Z,100993.63
2023-01-13T09:53:33.649Z,100990.78
2023-01-13T09:56:00.896Z,100989.84
2023-01-13T09:58:27.690Z,100988.00
2023-01-13T10:01:11.584Z,100990.59
2023-01-13T10:03:38.729Z,100974.69
2023-01-13T10:06:15.680Z,100979.13
2023-01-13T10:08:44.748Z,100977.19
2023-01-13T10:11:34.359Z,100977.78
2023-01-13T10:14:04.403Z,100979.44
2023-01-13T10:16:42.267Z,100975.81
2023-01-13T10:19:18.733Z,100955.41
2023-01-13T10:21:57.702Z,100970.09
2023-01-13T10:24:40.408Z,100964.38
2023-01-13T10:27:23.473Z,100962.53
2023-01-13T10:29:51.134Z,100955.31
2023-01-13T10:32:18.098Z,100953.38
2023-01-13T10:34:52.477Z,100945.28
2023-01-13T10:37:27.134Z,100944.88
2023-01-13T10:39:57.760Z,100942.84
2023-01-13T10:42:25.539Z,100931.09
2023-01-13T10:44:57.645Z,100927.38
2023-01-13T10:47:26.706Z,100919.28
2023-01-13T10:50:03.717Z,100916.59
2023-01-13T10:52:32.974Z,100912.91
2023-01-13T10:55:01.067Z,100918.13
2023-01-13T10:57:28.809Z,100917.19
2023-01-13T10:59:56.395Z,100903.91
2023-01-13T11:02:29.905Z,100902.28
2023-01-13T11:04:58.072Z,100912.03
2023-01-13T11:07:34.144Z,100917.47
2023-01-13T11:10:31.399Z,100919.28
2023-01-13T11:13:16.917Z,100913.91
2023-01-13T11:15:53.843Z,100917.50
2023-01-13T11:19:02.365Z,100909.56
2023-01-13T11:21:35.443Z,100909.56
2023-01-13T11:24:49.491Z,100890.16
2023-01-13T11:27:39.551Z,100892.81
2023-01-13T11:30:29.857Z,100892.81
2023-01-13T11:33:31.048Z,100876.81
2023-01-13T11:36:34.521Z,100872.69
2023-01-13T11:39:29.278Z,100865.41
2023-01-13T11:42:20.519Z,100858.41
2023-01-13T11:45:09.042Z,100855.00
2023-01-13T11:47:36.579Z,100856.91
2023-01-13T11:50:04.516Z,100844.63
2023-01-13T11:52:58.475Z,100844.53
2023-01-13T11:55:48.206Z,100845.41
2023-01-13T11:58:21.022Z,100844.53
2023-01-13T12:01:23.391Z,100835.84
2023-01-13T12:04:06.559Z,100826.28
2023-01-13T12:06:39.142Z,100837.63
2023-01-13T12:09:15.171Z,100839.53
2023-01-13T12:12:16.184Z,100844.94
2023-01-13T12:15:02.960Z,100847.59
2023-01-13T12:17:38.838Z,100852.03
2023-01-13T12:20:30.449Z,100845.03
2023-01-13T12:23:02.338Z,100848.50
2023-01-13T12:25:33.428Z,100847.53
2023-01-13T12:28:39.183Z,100844.84
2023-01-13T12:31:07.416Z,100852.50
2023-01-13T12:33:50.399Z,100849.09
2023-01-13T12:36:44.397Z,100849.09
2023-01-13T12:39:41.706Z,100846.47
2023-01-13T12:42:45.637Z,100842.12
2023-01-13T12:45:12.428Z,100838.69
2023-01-13T12:47:43.566Z,100837.66
2023-01-13T12:50:23.930Z,100834.16
2023-01-13T12:52:55.262Z,100834.91
2023-01-13T12:55:29.336Z,100837.44
2023-01-13T12:58:04.561Z,100836.53
2023-01-13T13:00:52.507Z,100833.78
2023-01-13T13:03:31.736Z,100835.38
2023-01-13T13:06:08.297Z,100831.88
2023-01-13T13:09:06.653Z,100830.19
2023-01-13T13:12:01.011Z,100835.53
2023-01-13T13:14:39.910Z,100839.78
2023-01-13T13:17:28.638Z,100838.03
2023-01-13T13:19:57.558Z,100843.34
2023-01-13T13:22:27.269Z,100829.34
2023-01-13T13:24:59.720Z,100835.47
2023-01-13T13:27:31.822Z,100838.09
2023-01-13T13:30:02.176Z,100837.19
2023-01-13T13:32:58.391Z,100843.25
2023-01-13T13:35:56.106Z,100836.13
2023-01-13T13:39:00.701Z,100848.47
2023-01-13T13:41:46.267Z,100841.53
2023-01-13T13:44:52.267Z,100830.91
2023-01-13T13:47:19.427Z,100830.25
2023-01-13T13:49:55.827Z,100828.44
2023-01-13T13:52:54.091Z,100831.09
2023-01-13T13:55:26.331Z,100834.53
2023-01-13T13:57:54.972Z,100837.22
2023-01-13T14:00:26.953Z,100828.56
2023-01-13T14:02:59.005Z,100839.06
2023-01-13T14:05:31.426Z,100843.53
2023-01-13T14:08:02.802Z,100840.00
2023-01-13T14:10:35.650Z,100837.37
2023-01-13T14:13:22.758Z,100847.19
2023-01-13T14:16:04.456Z,100847.31
2023-01-13T14:18:34.963Z,100849.00
2023-01-13T14:21:40.182Z,100840.22
2023-01-13T14:24:15.568Z,100844.66
2023-01-13T14:26:42.483Z,100840.31
2023-01-13T14:29:13.793Z,100844.63
2023-01-13T14:31:40.984Z,100854.25
2023-01-13T14:34:31.054Z,100848.94
2023-01-13T14:36:55.424Z,100848.94
2023-01-13T14:39:34.019Z,100853.41
2023-01-13T14:42:00.880Z,100856.81
2023-01-13T14:44:35.104Z,100856.78
2023-01-13T14:47:19.716Z,100859.53
2023-01-13T14:50:02.304Z,100846.22
2023-01-13T14:52:36.066Z,100849.78
2023-01-13T14:55:06.726Z,100849.03
2023-01-13T14:57:35.213Z,100852.59
2023-01-13T15:00:02.034Z,100850.75
2023-01-13T15:02:37.718Z,100851.59
2023-01-13T15:05:19.922Z,100848.94
2023-01-13T15:08:13.921Z,100842.78
2023-01-13T15:11:01.450Z,100839.34
2023-01-13T15:14:01.710Z,100840.13
2023-01-13T15:16:29.996Z,100841.91
2023-01-13T15:18:58.247Z,100842.94
2023-01-13T15:21:25.316Z,100846.47
2023-01-13T15:23:52.172Z,100856.22
2023-01-13T15:26:26.939Z,100861.53
2023-01-13T15:28:55.883Z,100864.16
2023-01-13T15:31:23.713Z,100857.00
2023-01-13T15:33:50.717Z,100854.31
2023-01-13T15:36:29.413Z,100850.87
2023-01-13T15:38:57.980Z,100852.59
2023-01-13T15:41:43.960Z,100855.25
2023-01-13T15:44:30.721Z,100862.22
2023-01-13T15:46:58.735Z,100858.69
2023-01-13T15:49:37.381Z,100870.16
2023-01-13T15:52:05.845Z,100875.34
2023-01-13T15:54:32.696Z,100875.28
2023-01-13T15:56:59.655Z,100872.53
2023-01-13T15:59:27.666Z,100867.22
2023-01-13T16:01:54.695Z,100869.84
2023-01-13T16:04:21.563Z,100865.34
2023-01-13T16:06:48.520Z,100875.16
2023-01-13T16:09:16.830Z,100867.28
2023-01-13T16:11:44.058Z,100868.84
2023-01-13T16:14:11.106Z,100871.50
2023-01-13T16:16:38.332Z,100880.41
2023-01-13T16:19:07.116Z,100873.38
2023-01-13T16:21:34.059Z,100875.00
2023-01-13T16:24:00.928Z,100875.09
2023-01-13T16:26:36.244Z,100877.66
2023-01-13T16:29:03.708Z,100882.78
2023-01-13T16:31:33.920Z,100880.03
2023-01-13T16:34:02.542Z,100887.87
2023-01-13T16:36:34.374Z,100892.22
2023-01-13T16:39:01.632Z,100892.94
2023-01-13T16:41:28.449Z,100881.63
2023-01-13T16:43:55.424Z,100898.22
2023-01-13T16:46:24.407Z,100896.44
2023-01-13T16:48:53.162Z,100894.63
2023-01-13T16:51:21.393Z,100889.34
2023-01-13T16:53:48.607Z,100882.25
2023-01-13T16:56:26.156Z,100894.63
2023-01-13T16:58:55.889Z,100892.81
2023-01-13T17:01:24.357Z,100894.59
2023-01-13T17:03:51.913Z,100884.22
2023-01-13T17:06:41.059Z,100890.38
2023-01-13T17:09:13.465Z,100894.59
2023-01-13T17:11:43.319Z,100898.91
2023-01-13T17:14:17.980Z,100895.28
2023-01-13T17:16:45.877Z,100897.94
2023-01-13T17:19:13.023Z,100898.81
2023-01-13T17:21:40.413Z,100899.75
2023-01-13T17:24:08.062Z,100904.09
2023-01-13T17:26:37.417Z,100907.50
2023-01-13T17:29:06.841Z,100905.78
2023-01-13T17:31:35.585Z,100912.72
2023-01-13T17:34:03.991Z,100912.78
2023-01-13T17:36:30.895Z,100909.25
2023-01-13T17:38:57.922Z,100907.50
2023-01-13T17:41:25.662Z,100905.69
2023-01-13T17:43:53.561Z,100902.97
2023-01-13T17:46:22.640Z,100910.94
2023-01-13T17:48:51.001Z,100905.88
2023-01-13T17:51:18.548Z,100909.22
2023-01-13T17:53:45.704Z,100913.00
2023-01-13T17:56:14.500Z,100910.22
2023-01-13T17:58:41.871Z,100903.12
2023-01-13T18:01:15.371Z,100904.00
2023-01-13T18:03:42.722Z,100911.09
2023-01-13T18:06:16.473Z,100905.13
2023-01-13T18:08:43.327Z,100911.41
2023-01-13T18:11:10.466Z,100910.44
2023-01-13T18:13:38.769Z,100916.72
2023-01-13T18:16:11.209Z,100907.78
2023-01-13T18:18:42.502Z,100911.41
2023-01-13T18:21:40.934Z,100898.81
2023-01-13T18:24:34.182Z,100909.66
2023-01-13T18:27:19.882Z,100902.47
2023-01-13T18:29:53.594Z,100907.81
2023-01-13T18:32:21.796Z,100908.72
2023-01-13T18:34:49.069Z,100899.00
2023-01-13T18:37:18.094Z,100911.28
2023-01-13T18:39:47.776Z,100914.81
2023-01-13T18:42:33.616Z,100908.56
2023-01-13T18:45:00.517Z,100908.63
2023-01-13T18:47:30.444Z,100909.53
2023-01-13T18:49:58.235Z,100902.41
2023-01-13T18:52:25.789Z,100917.47
2023-01-13T18:54:53.354Z,100904.22
2023-01-13T18:57:21.968Z,100899.25
2023-01-13T18:59:50.050Z,100907.91
2023-01-13T19:02:20.184Z,100906.41
2023-01-13T19:04:47.924Z,100916.16
2023-01-13T19:07:22.256Z,100911.94
2023-01-13T19:09:50.408Z,100915.56
2023-01-13T19:12:25.874Z,100911.03
2023-01-13T19:14:56.399Z,100920.00
2023-01-13T19:17:25.314Z,100912.84
2023-01-13T19:19:56.024Z,100913.81
2023-01-13T19:22:27.372Z,100910.34
2023-01-13T19:24:54.454Z,100911.19
2023-01-13T19:27:22.202Z,100912.03
2023-01-13T19:29:52.474Z,100919.16
2023-01-13T19:32:21.902Z,100916.50
2023-01-13T19:34:50.801Z,100929.75
2023-01-13T19:37:17.986Z,100937.06
2023-01-13T19:39:45.455Z,100945.00
2023-01-13T19:42:31.422Z,100947.59
2023-01-13T19:45:17.389Z,100959.66
2023-01-13T19:47:45.828Z,100964.00
2023-01-13T19:50:14.496Z,100956.88
2023-01-13T19:52:44.515Z,100949.88
2023-01-13T19:55:12.550Z,100949.88
2023-01-13T19:57:43.411Z,100946.38
2023-01-13T20:00:14.068Z,100949.13
2023-01-13T20:02:47.683Z,100960.56
2023-01-13T20:05:18.185Z,100967.78
2023-01-13T20:07:45.121Z,100967.78
2023-01-13T20:10:13.423Z,100967.75
2023-01-13T20:12:42.652Z,100966.13
2023-01-13T20:15:10.383Z,100974.84
2023-01-13T20:17:37.561Z,100989.94
2023-01-13T20:20:05.595Z,101018.28
2023-01-13T20:22:37.416Z,101021.84
2023-01-13T20:25:05.410Z,101017.31
2023-01-13T20:27:32.584Z,101010.94
2023-01-13T20:30:01.011Z,101019.03
2023-01-13T20:32:28.146Z,101002.25
2023-01-13T20:34:55.327Z,101012.87
2023-01-13T20:37:22.833Z,101011.06
2023-01-13T20:39:50.495Z,101018.19
2023-01-13T20:42:30.638Z,101011.78
2023-01-13T20:45:01.145Z,101004.59
2023-01-13T20:47:29.368Z,101007.06
2023-01-13T20:49:56.611Z,100998.12
2023-01-13T20:52:25.476Z,100996.22
2023-01-13T20:54:53.181Z,100989.25
2023-01-13T20:57:20.306Z,100998.97
2023-01-13T20:59:53.095Z,100986.50
2023-01-13T21:02:22.675Z,100987.38
2023-01-13T21:04:49.542Z,100982.87
2023-01-13T21:07:16.313Z,100975.00
2023-01-13T21:09:43.331Z,100976.81
2023-01-13T21:12:32.984Z,100968.00
2023-01-13T21:15:18.215Z,100976.91
2023-01-13T21:18:05.537Z,100976.13
2023-01-13T21:20:37.250Z,100987.53
2023-01-13T21:23:04.625Z,100990.00
2023-01-13T21:25:33.032Z,100975.06
2023-01-13T21:28:08.131Z,100996.84
2023-01-13T21:30:36.216Z,100987.16
2023-01-13T21:33:04.854Z,100982.84
2023-01-13T21:35:32.008Z,100968.84
2023-01-13T21:37:58.896Z,100958.31
2023-01-13T21:40:25.966Z,100925.72
2023-01-13T21:43:11.649Z,100909.97
2023-01-13T21:45:58.030Z,100912.69
2023-01-13T21:48:24.922Z,100911.84
2023-01-13T21:50:51.854Z,100917.19
2023-01-13T21:53:18.700Z,100925.22
2023-01-13T21:55:50.574Z,100943.81
2023-01-13T21:58:17.353Z,100960.69
2023-01-13T22:00:44.861Z,100949.03
2023-01-13T22:03:14.686Z,100959.56
2023-01-13T22:05:41.714Z,101012.53
2023-01-13T22:08:08.737Z,101040.94
2023-01-13T22:10:35.902Z,101055.91
2023-01-13T22:13:23.321Z,101056.63
2023-01-13T22:15:50.334Z,101056.44
2023-01-13T22:18:18.281Z,101047.78
2023-01-13T22:20:45.677Z,101060.87
2023-01-13T22:23:13.232Z,101053.69
2023-01-13T22:25:40.059Z,101057.22
2023-01-13T22:28:09.125Z,101058.84
2023-01-13T22:30:36.120Z,101048.19
2023-01-13T22:33:03.090Z,101027.84
2023-01-13T22:35:30.005Z,101023.00
2023-01-13T22:37:56.876Z,101015.94
2023-01-13T22:40:24.461Z,101010.72
2023-01-13T22:42:51.317Z,101004.72
2023-01-13T22:45:18.228Z,101009.97
2023-01-13T22:47:45.896Z,101002.03
2023-01-13T22:50:13.881Z,100998.50
2023-01-13T22:52:41.304Z,100998.38
2023-01-13T22:55:08.565Z,101002.84
2023-01-13T22:57:42.431Z,100993.97
2023-01-13T23:00:18.808Z,101003.59
2023-01-13T23:02:46.448Z,101012.53
2023-01-13T23:05:13.939Z,101014.31
2023-01-13T23:07:41.187Z,101010.88
2023-01-13T23:10:09.698Z,101015.28
2023-01-13T23:12:37.100Z,101005.41
2023-01-13T23:15:04.582Z,100997.34
2023-01-13T23:17:31.597Z,100985.84
2023-01-13T23:19:58.877Z,100991.09
2023-01-13T23:22:25.776Z,101001.91
2023-01-13T23:24:52.709Z,101005.59
2023-01-13T23:27:19.601Z,101011.06
2023-01-13T23:29:46.855Z,101005.72
2023-01-13T23:32:13.636Z,101001.31
2023-01-13T23:34:40.572Z,100998.81
2023-01-13T23:37:07.389Z,101000.63
2023-01-13T23:39:34.180Z,101010.13
2023-01-13T23:42:01.114Z,101013.44
2023-01-13T23:44:27.950Z,101011.75
2023-01-13T23:46:54.907Z,101013.53
2023-01-13T23:49:21.927Z,101016.25
2023-01-13T23:51:52.160Z,101005.84
2023-01-13T23:54:20.022Z,101008.41
2023-01-13T23:56:49.589Z,101002.97
2023-01-13T23:59:16.477Z,101005.50
